Patrick Dumfries

Chief Scout - Vitesse
20 Feb 2028
Sunday
Process

Personality

Adaptability (19) Ambition (18) Controversy (8) Loyalty (5) Pressure (13) Professionalism (18) Sportsmanship (12) Temperament (7)

Profile

Coaching Style Democratic
License Continental A
Determination 6
Man Management 6
Motivating 5
Discipline 7
Job Satisfaction
100%
Fatigue
0%
Role Chief Scout
Wage 69.1K p/w
Contract 14.03.2029

Performance

Behaviour Good
Training Effectiveness
54%
Player Development
40%
Injury Prevention
50%
Tactical Implementation
50%

Recent Events

Attended a recruitment meeting now
Recommended a transfer target now
Recommended a transfer target now
Attended a recruitment meeting now
Recommended a transfer target 7d ago
Attended a recruitment meeting 7d ago
Attended a recruitment meeting 7d ago
Attended a recruitment meeting 7d ago

Currently Monitoring

177
Player Club Status Ability Confidence Watched Last Observed Latest Vote
Ibrahim Cissoko Zwolle Active 120 / 131 55% 1 31.01.2028 -
Mikkel Hope Haugesund Active 83 / 109 40% 1 10.01.2028 -
Jan Bürger Gillingham Active 125 / 126 40% 1 10.01.2028 -
Zakarya Khaldi Roda Active 86 / 97 55% 1 01.01.2028 -
Negueba Mirassol Active 141 / 111 40% 3 29.12.2027 -
Aurélien Scheidler Tondela Active 130 / 116 40% 1 29.12.2027 -
Myron van Brederode KV Mechelen Active 128 / 119 40% 4 28.12.2027 -
Lewis Morgan SuperSport United Active 133 / 127 40% 2 28.12.2027 -
Tadeo Allende Inter Miami CF Active 133 / 131 40% 5 27.12.2027 -
Dániel Sallói Toronto FC Active 123 / 110 40% 1 27.12.2027 -
Adriano Bertaccini Anderlecht Active 130 / 130 40% 8 26.12.2027 Monitor
Arthur Cabral Botafogo Active 114 / 111 40% 4 26.12.2027 -
Ferreirinha Sport Recife Active 116 / 121 40% 3 25.12.2027 -
Rodrigo Castillo Fluminense Active 126 / 148 40% 1 24.12.2027 -
Mateo Cassierra Atlético Mineiro Active 122 / 119 40% 4 23.12.2027 -
Gianluca Pugliese Güemes Active 100 / 126 40% 4 22.12.2027 -
Leonardo Campana New England Revolution Active 132 / 119 40% 4 21.12.2027 -
Emmanuel Sabbi Vancouver Whitecaps Active 120 / 118 40% 6 21.12.2027 -
Adrián Parra Deportes Tolima Active 102 / 96 40% 1 19.12.2027 -
Adnan Courtois KV Oostende Active 150 / 127 40% 6 18.12.2027 -
Luca Langoni Colorado Rapids Active 124 / 134 40% 2 18.12.2027 -
Alfredo Morelos Atletico Nacional Active 115 / 111 40% 5 17.12.2027 -
Ruben van Bommel Ferencvaros Active 149 / 153 40% 3 16.12.2027 -
Santiago Sala Güemes Active 97 / 104 40% 2 15.12.2027 -
Juan Rocca Gimnasia y Tiro Active 115 / 115 40% 1 15.12.2027 -
Alejo Cruz Juventud Active 112 / 107 40% 5 14.12.2027 -
Alejandro Piedrahita Tigres Active 139 / 124 40% 1 14.12.2027 Needs More Info
Martín Ojeda Orlando City Active 145 / 126 40% 3 11.12.2027 -
Matheus Nascimento FC Dallas Active 126 / 130 40% 3 10.12.2027 -
Jáder Valencia Deportes Tolima Active 127 / 127 40% 1 05.12.2027 -
Cheikh Sabaly Vancouver Whitecaps Active 123 / 113 40% 2 04.12.2027 -
Gustavo Del Prete San Lorenzo Active 115 / 104 40% 1 04.12.2027 -
Daniel Valencia America de Cali Active 114 / 119 40% 1 02.12.2027 -
Bénie Traoré New York City Active 118 / 135 40% 3 29.11.2027 -
Claudio Spinelli Vasco da Gama Active 134 / 108 40% 1 29.11.2027 -
Jhoao Rodríguez Deportes Quindio Active 128 / 105 40% 3 24.11.2027 -
Agustín Anello Philadelphia Union Active 140 / 128 40% 1 24.11.2027 -
Luca Martínez Dupuy Godoy Cruz Active 107 / 125 40% 2 23.11.2027 -
Timo Werner San Jose Earthquakes Active 125 / 125 40% 2 20.11.2027 -
Augusto Berrondo Tristán Suárez Active 127 / 97 40% 3 19.11.2027 -
Eric Ramírez Llaneros Active 103 / 134 40% 1 19.11.2027 -
Dejan Joveljić Seattle Sounders Active 125 / 122 40% 2 17.11.2027 -
Maximiliano Gómez Nacional Active 136 / 128 40% 1 15.11.2027 -
Manuel Ospina Cortulua Active 138 / 124 40% 2 13.11.2027 -
Alexis Cuello San Lorenzo Active 133 / 144 40% 3 10.11.2027 -
Federico Martínez Liverpool Montevideo Active 104 / 128 40% 2 06.11.2027 -
Wessam Abou Ali Columbus Crew Active 122 / 120 40% 2 04.11.2027 -
Yota Komi Kashiwa Reysol Active 124 / 129 40% 3 03.11.2027 -
Erison Kawasaki Frontale Active 144 / 136 40% 1 22.10.2027 -
Jonathan Cañete Portuguesa Active 129 / 96 40% 1 21.10.2027 -
Sead Hakšabanović Malmo FF Active 129 / 106 40% 1 17.10.2027 -
Dean David Yokohama F. Marinos Active 108 / 97 40% 1 16.10.2027 -
Kévin Denkey FC Cincinnati Active 134 / 130 40% 1 15.10.2027 -
Lucas Carrizo Plaza Colonia Active 102 / 134 40% 1 14.10.2027 -
Kelvin Flórez Atletico Bucaramanga Active 111 / 137 40% 1 10.10.2027 -
Brandon Vázquez Austin FC Active 120 / 130 40% 1 09.10.2027 -
Sebastián Cocimano Nueva Chicago Active 129 / 121 40% 1 08.10.2027 -
Marcus Vinicius Deportivo Pereira Active 106 / 108 40% 1 04.10.2027 -
Assane Diao Lazio Active 153 / 150 40% 1 16.08.2027 -
Bryan Gil Girona Active 156 / 138 40% 1 16.08.2027 -
Welington Southampton Active 132 / 131 40% 1 09.08.2027 -
Ollie Tanner Cardiff City Active 129 / 125 40% 1 02.08.2027 -
Jason Knight Bristol City Active 132 / 132 40% 1 02.08.2027 -
Fuzy Taylor Medeama Active 67 / 79 40% 1 26.07.2027 -
Darryl Bakola Padova Active 104 / 111 40% 1 26.07.2027 -
Lucas Høgsberg RC Strasbourg Active 143 / 130 40% 1 04.06.2027 -
Josh King Chelsea Active 131 / 150 40% 1 04.06.2027 -
Jofre Torrents Ajax Active 113 / 143 40% 1 03.06.2027 -
Davide Bartesaghi AC Milan Active 142 / 123 40% 1 03.06.2027 -
Pedro de la Vega FC Dallas Active 133 / 134 66% 1 01.06.2027 Approve
Nick Viergever Zwolle Active 132 / 129 48% 1 01.06.2027 -
Carlos Vicente Birmingham Active 151 / 130 40% 3 28.05.2027 -
Igor Nikić Mirandés Active 124 / 132 40% 7 27.05.2027 -
Balázs Tóth Blackburn Rovers Active 121 / 117 40% 2 27.05.2027 -
Guilherme Fernandes Córdoba Active 132 / 135 40% 4 25.05.2027 -
Ionuţ Radu Celta Active 132 / 143 40% 3 25.05.2027 -
Julen Agirrezabala Racing Santander Active 154 / 155 40% 7 24.05.2027 -
Joel Pereira Reading Active 106 / 116 40% 2 24.05.2027 -
Brent Gabriel Zulte Waregem Active 121 / 113 40% 4 22.05.2027 -
Bailey Peacock-Farrell Blackpool Active 119 / 101 40% 2 22.05.2027 -
Murphy Cooper Plymouth Argyle Active 124 / 114 40% 4 21.05.2027 -
Max O'Leary West Bromwich Albion Active 134 / 132 40% 3 20.05.2027 -
Andrés Martín Racing Santander Active 143 / 129 40% 3 19.05.2027 -
Caoimhin Kelleher Brentford Active 165 / 147 40% 3 19.05.2027 -
Leo Kokubo Sint-Truiden Active 129 / 108 40% 3 18.05.2027 -
Mads Hermansen West Ham United Active 131 / 138 40% 1 18.05.2027 -
Stanley Mills Oxford United Active 125 / 120 40% 1 17.05.2027 -
Riley McGree Middlesbrough Active 143 / 118 40% 1 17.05.2027 -
Antonio Sivera Alavés Active 135 / 141 40% 4 14.05.2027 -
Gonzalo Crettaz NEC Active 135 / 143 40% 2 13.05.2027 -
Mario Stroeykens Anderlecht Active 122 / 130 40% 1 07.05.2027 -
Michael Cooper Sheffield United Active 140 / 125 40% 7 03.05.2027 -
Zach Hemming Chesterfield Active 106 / 99 40% 3 03.05.2027 -
Fabian de Keijzer Heracles Active 107 / 126 40% 4 03.05.2027 -
Couhaib Driouech Celta Active 136 / 131 40% 1 03.05.2027 -
Yehvann Diouf OGC Nice Active 143 / 137 40% 4 30.04.2027 -
Thomas Didillon-Hödl Willem II Active 121 / 111 40% 2 29.04.2027 -
Daniel Iversen Preston Active 135 / 120 40% 1 29.04.2027 -
Javi Ontiveros Cádiz Active 139 / 133 40% 1 29.04.2027 -
Ianis Hagi Alanyaspor Active 137 / 110 40% 1 29.04.2027 -
Álvaro Valles Betis Active 148 / 149 40% 3 27.04.2027 -
Pol Lozano Espanyol Active 139 / 132 40% 2 27.04.2027 -
Alfie Whiteman Newport County Active 109 / 95 40% 2 27.04.2027 -
Finn Azaz Southampton Active 126 / 116 40% 1 27.04.2027 -
Robin Roefs Sunderland Active 153 / 153 40% 2 23.04.2027 -
Arijanet Murić Sassuolo Active 149 / 147 40% 4 20.04.2027 -
Radek Vítek Middlesbrough Active 146 / 132 40% 4 20.04.2027 -
Abel Ruiz Girona Active 148 / 135 40% 1 20.04.2027 -
Félix Lemaréchal Club Brugge Active 149 / 150 40% 1 20.04.2027 -
Leander Lukaku KV Oostende Active 129 / 134 40% 5 17.04.2027 -
Dean Henderson Crystal Palace Active 140 / 149 40% 4 17.04.2027 -
Erick Reyes Toluca Active 148 / 134 40% 8 16.04.2027 -
Jonmi Magunagoitia Eibar Active 121 / 127 40% 5 15.04.2027 -
Corey Addai Stockport County Active 103 / 115 40% 2 11.04.2027 -
Jeffrey de Lange Olympique de Marseille Active 138 / 123 40% 1 11.04.2027 -
Beau Reus Waasland-Beveren Active 139 / 139 40% 11 08.04.2027 -
Thomas De Bruyne Mouscron Active 128 / 133 40% 5 05.04.2027 -
Tom Fellows Southampton Active 121 / 139 40% 1 04.04.2027 -
Ozziel Herrera Tigres Active 118 / 130 40% 1 02.04.2027 -
Luís Esteves Atlas Active 126 / 119 40% 1 01.04.2027 -
Mduduzi Shabalala Kaizer Chiefs Active 121 / 111 40% 1 01.04.2027 -
Etienne Vaessen Groningen Active 108 / 133 40% 3 27.03.2027 -
Marko Ilić Westerlo Active 119 / 128 40% 4 27.03.2027 -
Myron Boadu Twente Active 115 / 123 40% 1 27.03.2027 -
Chris Lokesa Waasland-Beveren Active 116 / 111 40% 1 27.03.2027 -
Ortwin De Wolf KV Mechelen Active 111 / 126 40% 4 25.03.2027 -
Ilay Camara Anderlecht Active 124 / 128 40% 2 24.03.2027 -
Carlos Marín Albacete Active 130 / 133 40% 2 19.03.2027 -
Stijn van Gassel Excelsior Active 118 / 134 40% 4 18.03.2027 -
Maxence Prévot OH Leuven Active 105 / 122 40% 4 13.03.2027 -
Siebe Schrijvers OH Leuven Active 125 / 127 40% 1 11.03.2027 -
Yoann Cathline Utrecht Active 142 / 126 40% 1 10.03.2027 -
Bradley Mabunda SuperSport United Active 99 / 119 40% 1 09.03.2027 -
Cezary Miszta Rio Ave Active 123 / 136 40% 1 24.02.2027 -
Jordan Amissah Burton Albion Active 111 / 100 40% 1 18.02.2027 -
Wladimiro Falcone Lecce Active 128 / 128 40% 1 11.02.2027 -
Carlos Moreno Pachuca Active 137 / 123 40% 1 09.02.2027 -
Hugo Souza Corinthians Active 121 / 130 40% 1 28.01.2027 -
Augusto Batalla Rayo Vallecano Active 146 / 149 40% 2 26.01.2027 -
Christian Walton Ipswich Town Active 125 / 131 40% 1 26.01.2027 -
Justin Treichel Roda Active 119 / 116 40% 1 21.01.2027 -
Nikolas Sattlberger Racing Genk Active 114 / 120 40% 1 12.01.2027 -
Omar El Hilali Espanyol Active 140 / 150 40% 1 12.01.2027 -
Lukas Jensen Millwall Active 115 / 107 40% 1 06.01.2027 -
George Wickens Lincoln City Active 105 / 117 40% 2 05.01.2027 -
Erick Sánchez OGC Nice Negotiating 139 / 139 66% 1 01.01.2027 Approve
Oli McBurnie Hull City Active 128 / 125 40% 4 30.12.2026 -
Jhojan Julio Queretaro Active 110 / 126 40% 1 30.12.2026 -
Ryotaro Araki Sint-Truiden Active 118 / 115 40% 1 29.12.2026 -
Nacer Tielemans Mouscron Active 144 / 125 40% 3 27.12.2026 -
Hugo Duro Valencia Active 142 / 142 40% 1 27.12.2026 Needs More Info
Nicolò Tresoldi Club Brugge Active 123 / 126 40% 4 19.12.2026 -
Yousef Salech Cardiff City Active 129 / 117 40% 2 15.12.2026 -
Rafiu Durosinmi Racing Genk Active 119 / 130 40% 1 09.12.2026 -
Themba Ngcobo SuperSport United Active 104 / 102 40% 1 07.12.2026 -
Mexx Meerdink AZ Active 147 / 129 40% 2 05.12.2026 -
Romelu Castagne KV Oostende Active 129 / 145 40% 4 03.12.2026 -
Gabriel Jesus Barcelona Active 161 / 161 40% 3 28.11.2026 -
Giacomo Raspadori Atalanta Active 135 / 155 40% 1 16.11.2026 -
Benito Raman KV Mechelen Active 109 / 121 40% 3 14.11.2026 -
Jakob Napoleon Romsaas Charleroi Active 122 / 118 40% 1 14.11.2026 -
Haris Tabaković Red Bull Salzburg Active 151 / 142 40% 1 11.11.2026 -
Thiago Brentford Active 154 / 159 40% 1 11.11.2026 -
Luis Vázquez Birmingham Active 116 / 123 40% 1 09.11.2026 -
Lucas Di Yorio Santos Laguna Active 121 / 118 40% 1 07.11.2026 -
Georginio Rutter Brighton Active 160 / 137 40% 1 29.10.2026 -
Freddy Gomez La Equidad Active 129 / 129 40% 1 23.10.2026 -
Dango Ouattara Brentford Active 137 / 151 40% 1 23.10.2026 -
Agustín Módica Gimnasia y Esgrima Active 103 / 101 40% 1 20.10.2026 -
Danylo Sikan Anderlecht Active 115 / 119 40% 1 19.10.2026 -
Hugo Cuypers Monterrey Active 131 / 136 40% 1 19.10.2026 -
Maksim Kireev KV Mechelen Active 112 / 119 40% 1 31.08.2026 -
Oualid Agougil Utrecht Active 109 / 104 44% 1 24.08.2026 -
Matisse Samoise KAA Gent Active 118 / 122 40% 1 17.08.2026 -
Taiga Hata Sint-Truiden Active 129 / 128 40% 1 10.08.2026 -
Roméo Amané Anderlecht Active 109 / 134 40% 1 10.08.2026 -
Igor Burnley Active 144 / 124 40% 1 01.08.2026 -